createdAt,value
2023-03-05T00:00:45.774Z,4.19
2023-03-05T00:05:49.938Z,4.17
2023-03-05T00:10:57.371Z,4.19
2023-03-05T00:16:00.244Z,4.21
2023-03-05T00:21:05.268Z,4.19
2023-03-05T00:26:08.165Z,4.20
2023-03-05T00:31:12.507Z,4.16
2023-03-05T00:36:17.174Z,3.98
2023-03-05T00:41:20.166Z,3.86
2023-03-05T00:46:23.483Z,3.81
2023-03-05T00:51:27.893Z,3.76
2023-03-05T00:56:30.703Z,3.70
2023-03-05T01:01:33.762Z,3.90
2023-03-05T01:06:42.752Z,3.94
2023-03-05T01:11:45.589Z,3.97
2023-03-05T01:16:48.832Z,4.04
2023-03-05T01:21:54.106Z,4.11
2023-03-05T01:26:57.712Z,4.12
2023-03-05T01:32:02.328Z,4.20
2023-03-05T01:37:06.678Z,4.27
2023-03-05T01:42:09.633Z,4.26
2023-03-05T01:47:12.534Z,4.21
2023-03-05T01:52:18.254Z,4.19
2023-03-05T01:57:24.065Z,4.13
2023-03-05T02:02:27.201Z,4.10
2023-03-05T02:07:32.487Z,4.10
2023-03-05T02:12:35.549Z,4.16
2023-03-05T02:17:38.405Z,4.15
2023-03-05T02:22:42.644Z,4.14
2023-03-05T02:27:48.981Z,4.16
2023-03-05T02:32:52.242Z,4.17
2023-03-05T02:37:58.567Z,4.18
2023-03-05T02:43:01.943Z,4.20
2023-03-05T02:48:05.469Z,4.22
2023-03-05T02:53:09.801Z,4.25
2023-03-05T02:58:13.550Z,4.25
2023-03-05T03:03:16.665Z,4.23
2023-03-05T03:08:20.975Z,4.18
2023-03-05T03:13:23.967Z,4.14
2023-03-05T03:18:27.151Z,4.11
2023-03-05T03:23:31.983Z,3.99
2023-03-05T03:28:34.904Z,3.84
2023-03-05T03:33:37.783Z,3.82
2023-03-05T03:38:42.056Z,3.72
2023-03-05T03:43:44.897Z,3.67
2023-03-05T03:48:51.532Z,3.66
2023-03-05T03:53:55.768Z,3.69
2023-03-05T03:58:58.600Z,3.79
2023-03-05T04:04:01.561Z,3.86
2023-03-05T04:09:06.262Z,3.86
2023-03-05T04:14:09.089Z,3.85
2023-03-05T04:19:11.999Z,3.86
2023-03-05T04:24:16.191Z,3.95
2023-03-05T04:29:19.383Z,3.99
2023-03-05T04:34:22.223Z,3.98
2023-03-05T04:39:26.493Z,3.98
2023-03-05T04:44:29.449Z,3.98
2023-03-05T04:49:32.350Z,3.98
2023-03-05T04:54:36.632Z,3.98
2023-03-05T04:59:39.648Z,3.94
2023-03-05T05:04:45.222Z,3.97
2023-03-05T05:09:49.456Z,3.98
2023-03-05T05:14:52.290Z,3.95
2023-03-05T05:19:55.082Z,3.91
2023-03-05T05:24:59.281Z,3.90
2023-03-05T05:30:02.306Z,3.87
2023-03-05T05:35:05.487Z,3.90
2023-03-05T05:40:11.329Z,3.92
2023-03-05T05:45:14.310Z,3.94
2023-03-05T05:50:17.597Z,3.87
2023-03-05T05:55:21.939Z,3.85
2023-03-05T06:00:25.110Z,3.81
2023-03-05T06:05:28.014Z,3.83
2023-03-05T06:10:32.253Z,3.86
2023-03-05T06:15:35.173Z,3.85
2023-03-05T06:20:38.011Z,3.85
2023-03-05T06:25:42.152Z,3.84
2023-03-05T06:30:45.012Z,3.92
2023-03-05T06:35:47.917Z,3.99
2023-03-05T06:40:52.424Z,3.97
2023-03-05T06:46:03.125Z,3.97
2023-03-05T06:51:06.518Z,4.05
2023-03-05T06:56:11.457Z,4.10
2023-03-05T07:01:14.588Z,4.16
2023-03-05T07:06:17.561Z,4.14
2023-03-05T07:11:23.770Z,4.16
2023-03-05T07:16:28.163Z,4.11
2023-03-05T07:21:32.774Z,4.14
2023-03-05T07:26:37.209Z,4.17
2023-03-05T07:31:40.094Z,4.33
2023-03-05T07:36:43.045Z,4.42
2023-03-05T07:41:47.673Z,4.59
2023-03-05T07:46:51.084Z,4.68
2023-03-05T07:51:53.896Z,4.71
2023-03-05T07:56:58.193Z,5.03
2023-03-05T08:02:01.014Z,5.51
2023-03-05T08:07:03.923Z,5.86
2023-03-05T08:12:09.926Z,5.83
2023-03-05T08:17:12.853Z,5.75
2023-03-05T08:22:16.168Z,5.66
2023-03-05T08:27:20.443Z,5.81
2023-03-05T08:32:23.598Z,5.89
2023-03-05T08:37:26.581Z,6.08
2023-03-05T08:42:30.909Z,6.18
2023-03-05T08:47:33.741Z,6.18
2023-03-05T08:52:36.599Z,6.38
2023-03-05T08:57:40.790Z,6.39
2023-03-05T09:02:43.640Z,6.30
2023-03-05T09:07:46.601Z,6.39
2023-03-05T09:12:50.802Z,6.69
2023-03-05T09:17:53.806Z,7.06
2023-03-05T09:22:56.687Z,7.49
2023-03-05T09:28:00.912Z,8.18
2023-03-05T09:33:04.204Z,8.33
2023-03-05T09:38:07.056Z,8.20
2023-03-05T09:43:20.672Z,8.40
2023-03-05T09:48:26.448Z,8.39
2023-03-05T09:53:38.447Z,8.28
2023-03-05T09:58:44.168Z,8.31
2023-03-05T10:03:54.889Z,8.28
2023-03-05T10:08:59.691Z,8.42
2023-03-05T10:14:04.274Z,8.62
2023-03-05T10:19:12.059Z,8.82
2023-03-05T10:24:18.431Z,9.20
2023-03-05T10:29:41.178Z,9.53
2023-03-05T10:35:03.292Z,9.52
2023-03-05T10:40:15.339Z,9.05
2023-03-05T10:45:22.170Z,8.43
2023-03-05T10:50:26.983Z,8.10
2023-03-05T10:55:29.820Z,8.15
2023-03-05T11:00:34.592Z,8.25
2023-03-05T11:05:42.044Z,8.35
2023-03-05T11:10:44.887Z,8.48
2023-03-05T11:16:00.236Z,8.60
2023-03-05T11:21:09.749Z,8.70
2023-03-05T11:26:20.676Z,8.74
2023-03-05T11:31:30.075Z,8.77
2023-03-05T11:36:34.713Z,8.95
2023-03-05T11:41:40.290Z,9.08
2023-03-05T11:46:47.871Z,9.21
2023-03-05T11:51:59.249Z,9.32
2023-03-05T11:57:03.782Z,9.25
2023-03-05T12:02:19.402Z,9.20
2023-03-05T12:07:28.360Z,9.19
2023-03-05T12:12:38.867Z,9.23
2023-03-05T12:17:46.964Z,8.83
2023-03-05T12:22:50.706Z,8.45
2023-03-05T12:27:53.722Z,8.28
2023-03-05T12:32:57.982Z,8.30
2023-03-05T12:38:25.618Z,8.37
2023-03-05T12:43:31.343Z,8.47
2023-03-05T12:48:47.587Z,8.40
2023-03-05T12:53:52.071Z,8.50
2023-03-05T12:58:56.645Z,8.57
2023-03-05T13:04:04.214Z,8.68
2023-03-05T13:09:13.937Z,9.23
2023-03-05T13:14:33.528Z,9.68
2023-03-05T13:19:37.739Z,9.81
2023-03-05T13:24:40.593Z,9.89
2023-03-05T13:29:51.807Z,9.72
2023-03-05T13:34:58.086Z,9.69
2023-03-05T13:40:04.933Z,9.32
2023-03-05T13:45:22.766Z,9.39
2023-03-05T13:50:29.492Z,9.70
2023-03-05T13:55:32.351Z,9.92
2023-03-05T14:00:36.564Z,10.12
2023-03-05T14:05:45.784Z,10.19
2023-03-05T14:10:49.041Z,10.09
2023-03-05T14:16:05.698Z,9.88
2023-03-05T14:21:11.665Z,9.57
2023-03-05T14:26:27.517Z,9.71
2023-03-05T14:31:33.058Z,9.84
2023-03-05T14:36:39.021Z,10.14
2023-03-05T14:41:43.064Z,10.25
2023-03-05T14:46:49.753Z,10.40
2023-03-05T14:51:53.979Z,10.15
2023-03-05T14:56:56.770Z,9.84
2023-03-05T15:01:59.548Z,9.58
2023-03-05T15:07:03.798Z,9.52
2023-03-05T15:12:07.072Z,8.99
2023-03-05T15:17:18.582Z,8.64
2023-03-05T15:22:22.835Z,8.33
2023-03-05T15:27:25.613Z,8.20
2023-03-05T15:32:29.116Z,8.14
2023-03-05T15:37:33.325Z,8.13
2023-03-05T15:42:36.086Z,8.25
2023-03-05T15:47:38.935Z,7.91
2023-03-05T15:52:43.121Z,7.83
2023-03-05T15:57:47.565Z,7.57
2023-03-05T16:02:50.499Z,7.22
2023-03-05T16:07:55.136Z,7.10
2023-03-05T16:13:03.662Z,6.88
2023-03-05T16:18:09.512Z,6.87
2023-03-05T16:23:13.649Z,6.81
2023-03-05T16:28:16.474Z,6.73
2023-03-05T16:33:19.238Z,6.73
2023-03-05T16:38:23.346Z,6.63
2023-03-05T16:43:26.124Z,6.55
2023-03-05T16:48:30.342Z,6.47
2023-03-05T16:53:34.625Z,6.33
2023-03-05T16:58:38.931Z,6.19
2023-03-05T17:03:43.454Z,6.09
2023-03-05T17:08:48.955Z,5.96
2023-03-05T17:13:51.892Z,5.92
2023-03-05T17:18:54.744Z,5.88
2023-03-05T17:23:59.022Z,5.91
2023-03-05T17:29:01.803Z,5.93
2023-03-05T17:34:04.616Z,5.94
2023-03-05T17:39:08.865Z,5.89
2023-03-05T17:44:11.652Z,5.83
2023-03-05T17:49:14.488Z,5.82
2023-03-05T17:54:18.637Z,5.81
2023-03-05T17:59:21.414Z,5.80
2023-03-05T18:04:24.364Z,5.78
2023-03-05T18:09:28.645Z,5.74
2023-03-05T18:14:31.468Z,5.73
2023-03-05T18:19:34.334Z,5.71
2023-03-05T18:24:38.696Z,5.78
2023-03-05T18:29:41.497Z,5.69
2023-03-05T18:34:44.469Z,5.67
2023-03-05T18:39:48.578Z,5.62
2023-03-05T18:44:51.421Z,5.59
2023-03-05T18:49:54.370Z,5.55
2023-03-05T18:54:58.497Z,5.56
2023-03-05T19:00:01.371Z,5.55
2023-03-05T19:05:04.312Z,5.56
2023-03-05T19:10:10.245Z,5.45
2023-03-05T19:15:14.500Z,5.47
2023-03-05T19:20:18.004Z,5.35
2023-03-05T19:25:22.212Z,5.28
2023-03-05T19:30:25.209Z,5.25
2023-03-05T19:35:28.132Z,5.23
2023-03-05T19:40:32.265Z,5.24
2023-03-05T19:45:35.636Z,5.20
2023-03-05T19:50:38.483Z,5.12
2023-03-05T19:55:42.648Z,5.18
2023-03-05T20:00:45.617Z,5.18
2023-03-05T20:05:48.524Z,5.23
2023-03-05T20:10:52.681Z,5.21
2023-03-05T20:15:55.848Z,5.04
2023-03-05T20:21:01.976Z,5.11
2023-03-05T20:26:06.765Z,5.08
2023-03-05T20:31:09.796Z,5.15
2023-03-05T20:36:12.683Z,5.19
2023-03-05T20:41:19.222Z,5.21
2023-03-05T20:46:23.545Z,5.10
2023-03-05T20:51:27.676Z,5.17
2023-03-05T20:56:33.670Z,5.02
2023-03-05T21:01:38.016Z,4.73
2023-03-05T21:06:40.923Z,4.76
2023-03-05T21:11:45.125Z,4.76
2023-03-05T21:16:47.970Z,4.62
2023-03-05T21:21:50.727Z,4.44
2023-03-05T21:26:54.894Z,4.24
2023-03-05T21:31:57.762Z,4.13
2023-03-05T21:37:00.564Z,4.08
2023-03-05T21:42:05.177Z,4.06
2023-03-05T21:47:08.082Z,4.00
2023-03-05T21:52:12.750Z,3.86
2023-03-05T21:57:16.864Z,3.74
2023-03-05T22:02:21.266Z,3.59
2023-03-05T22:07:24.055Z,3.54
2023-03-05T22:12:43.045Z,3.49
2023-03-05T22:17:46.113Z,3.43
2023-03-05T22:22:49.167Z,3.42
2023-03-05T22:27:53.472Z,3.35
2023-03-05T22:32:56.355Z,3.31
2023-03-05T22:37:59.575Z,3.31
2023-03-05T22:43:03.939Z,3.34
2023-03-05T22:48:07.501Z,3.34
2023-03-05T22:53:10.401Z,3.28
2023-03-05T22:58:14.572Z,3.24
2023-03-05T23:03:17.462Z,3.20
2023-03-05T23:08:20.327Z,3.19
2023-03-05T23:13:24.477Z,3.19
2023-03-05T23:18:27.282Z,3.18
2023-03-05T23:23:30.053Z,3.21
2023-03-05T23:28:34.215Z,3.27
2023-03-05T23:33:37.060Z,3.32
2023-03-05T23:38:39.903Z,3.38
2023-03-05T23:43:44.014Z,3.47
2023-03-05T23:48:46.838Z,3.51
2023-03-05T23:53:49.659Z,3.50
2023-03-05T23:58:56.023Z,3.43
